Aviation Digital Data Service (ADDS)

Output produced by METARs form (0604 UTC 18 January 2018)
found at http://www.aviationweather.gov/adds/metars/
 
LRCK 180530Z 33021KT 0300 R18/P2000 R36/0800D SN FZFG VV003 M00/M00 Q0989 R18/590592 BECMG 0800 SN DRSN
TAF COR LRCK 180532Z 1806/1906 33018KT 3000 -SN BR BKN010 
     TEMPO 1806/1808 0600 +SN BLSN BKN005 OVC020 
     BECMG 1808/1810 32030G45KT 5000 -SN DRSN BKN015 
     BECMG 1815/1816 7000 NSW BKN020 
     BECMG 1821/1823 30015G25KT
       
LRTC 180530Z AUTO 33029KT 1100 R34/1300U +SN VV004 00/00 Q0990
LRBC 180530Z 34021KT 9999 DRSN BKN055 OVC065 03/M00 Q0999 R16/820395
TAF LRBC 180500Z 1806/1815 34022KT 9999 -SN DRSN BKN045 
     TEMPO 1806/1815 34025G35KT 
     BECMG 1808/1810 NSW
       
LRIA 180530Z 33015KT CAVOK M02/M02 Q0999 R14/990293
TAF LRIA 180500Z 1806/1815 34015KT 9999 SCT020 
     TEMPO 1806/1815 34020G35KT
       
LRSV 180530Z 33021KT 9999 DRSN NSC M01/M03 Q1000 R16/390093
TAF LRSV 180500Z 1806/1815 34019KT CAVOK
       
LROP 180530Z 23004KT 2500 BR NSC 00/M01 Q0996 R88/29//95 TEMPO 1500 BR
TAF LROP 180500Z 1806/1906 VRB04KT 3000 BR NSC 
     PROB30 
     TEMPO 1806/1808 1500 BR 
     BECMG 1806/1808 30010KT CAVOK
       
LRBS 180530Z 27002KT 3500 BR NSC 02/01 Q0996 R07/29//95 NOSIG
TAF LRBS 180500Z 1806/1906 VRB04KT 3000 BR NSC 
     PROB30 
     TEMPO 1806/1808 1500 BR 
     BECMG 1806/1808 30010KT CAVOK
       
LRCV 180530Z AUTO 27018KT BKN130/// BKN160/// 01/M02 Q1000
TAF LRCV 180500Z 1806/1815 27018KT CAVOK 
     TEMPO 1806/1811 27020G30KT
       
LRSB 180530Z 31012KT 9999 SCT030 SCT045 OVC076 00/M03 Q1003 R27/750194 NOSIG
TAF LRSB 180500Z 1806/1906 30012KT 9999 SCT040 BKN070 
     PROB30 
     TEMPO 1806/1809 5000 -SN BR 
     BECMG 1817/1819 VRB04KT
       
LRAR 180530Z 31006KT CAVOK 00/M00 Q1009 R09/29//95
TAF LRAR 180500Z 1806/1815 32008KT CAVOK 
     BECMG 1811/1813 26010KT
       
LRCL 180530Z 29013KT CAVOK M01/M05 Q1004
TAF LRCL 180500Z 1806/1815 30015KT CAVOK 
     BECMG 1813/1815 VRB04KT
       
LRTR 180530Z 31006KT 9999 FEW037 M00/M02 Q1009 R11/490394
TAF LRTR 180500Z 1806/1906 32010KT CAVOK 
     BECMG 1811/1813 26007KT 
     BECMG 1816/1818 19010KT
       
LRTM 180530Z AUTO 30012KT 9999 SCT190/// M00/M03 Q1003
LRBM 180530Z /KT 9999 SCT005 Q1005
TAF LRBM 180536Z 1806/1815 31010KT CAVOK 
     BECMG 1811/1813 VRB03KT 
     PROB40 
     TEMPO 1813/1815 3000 BR BKN010
       
LRSM 180530Z 29006KT CAVOK M02/M02 Q1006 R01/710194
TAF LRSM 180500Z 1806/1815 31010KT CAVOK 
     PROB30 
     TEMPO 1806/1808 5000 BR 
     BECMG 1809/1811 25007KT
       
LROD 180530Z 27003KT 9999 BKN043 00/M01 Q1007 R01/19//95
TAF LROD 180500Z 1806/1815 26005KT 9999 SCT045
       
LRCT 180500Z 31016G31KT 9999 SCT150 00/M04 Q1002 BLU BLU